Time;durP1;ratioP1;P1;durP2;ratioP2;P2;SDS_P1;SDS_P2;PMS_P1;PMS_P2;Temp;Humidity;BMP_temperature;BMP_pressure;BME280_temperature;BME280_humidity;BME280_pressure;Samples;Min_cycle;Max_cycle;Signal;HPM_P1;HPM_P2
2023/01/17 00:01:54;;;;;;;5.70;1.97;;;1.10;99.90;;;;;;4997035;28;20444;-58
2023/01/17 00:09:55;;;;;;;1.93;1.70;;;1.00;99.90;;;;;;4986675;28;20484;-58
2023/01/17 00:12:24;;;;;;;3.10;1.70;;;1.00;99.90;;;;;;4985099;28;20454;-58
2023/01/17 00:14:51;;;;;;;2.50;1.73;;;1.00;99.90;;;;;;4986914;28;20481;-57
2023/01/17 00:17:17;;;;;;;2.90;1.50;;;1.00;99.90;;;;;;4987482;28;20948;-58
2023/01/17 01:34:35;;;;;;;2.43;1.40;;;1.10;99.90;;;;;;4991747;28;20481;-56
2023/01/17 01:37:00;;;;;;;1.83;1.57;;;1.10;99.90;;;;;;4989577;28;20435;-58
2023/01/17 01:39:26;;;;;;;1.87;1.10;;;1.10;99.90;;;;;;4991585;28;20179;-59
2023/01/17 01:41:52;;;;;;;1.47;1.37;;;1.10;99.90;;;;;;4998768;28;20200;-58
2023/01/17 01:44:45;;;;;;;1.50;1.23;;;1.10;99.90;;;;;;4994047;28;20191;-58
2023/01/17 01:47:21;;;;;;;2.20;1.50;;;1.10;99.90;;;;;;4991060;28;20195;-58
2023/01/17 01:49:48;;;;;;;1.60;1.50;;;1.10;99.90;;;;;;4991778;28;21355;-58
2023/01/17 01:52:15;;;;;;;1.40;1.30;;;1.20;99.90;;;;;;4991923;28;21269;-58
2023/01/17 01:54:46;;;;;;;2.90;1.53;;;1.10;99.90;;;;;;4989011;28;21108;-58
2023/01/17 01:57:16;;;;;;;1.40;1.30;;;1.20;99.90;;;;;;4999253;28;20443;-59
2023/01/17 01:59:48;;;;;;;1.87;1.40;;;1.20;99.90;;;;;;4992900;28;20469;-58
2023/01/17 02:02:14;;;;;;;3.60;1.80;;;1.20;99.90;;;;;;4988624;28;20460;-58
2023/01/17 02:04:40;;;;;;;1.73;1.47;;;1.20;99.90;;;;;;4986191;28;20444;-59
2023/01/17 02:07:13;;;;;;;1.83;1.73;;;1.20;99.90;;;;;;4991740;28;20513;-58
2023/01/17 02:09:39;;;;;;;5.20;1.93;;;1.20;99.90;;;;;;4990629;28;20484;-58
2023/01/17 02:12:06;;;;;;;1.70;1.60;;;1.20;99.90;;;;;;4993878;28;20833;-58
2023/01/17 02:14:31;;;;;;;3.57;1.70;;;1.20;99.90;;;;;;4991361;28;20221;-58
2023/01/17 02:17:19;;;;;;;2.53;1.70;;;1.20;99.90;;;;;;4991791;28;20517;-57
2023/01/17 02:20:03;;;;;;;1.90;1.70;;;1.20;99.90;;;;;;4990608;28;20288;-58
2023/01/17 02:22:34;;;;;;;3.17;1.63;;;1.20;99.90;;;;;;4996041;28;20458;-58
2023/01/17 02:25:15;;;;;;;4.60;1.80;;;1.20;99.90;;;;;;4998203;28;20443;-57
2023/01/17 02:28:12;;;;;;;2.50;1.60;;;1.20;99.90;;;;;;4995988;28;20612;-59
2023/01/17 02:30:41;;;;;;;1.53;1.43;;;1.20;99.90;;;;;;4990420;28;21118;-59
2023/01/17 02:33:12;;;;;;;2.10;1.60;;;1.20;99.90;;;;;;4998817;28;20451;-60
2023/01/17 02:35:51;;;;;;;2.10;1.53;;;1.10;99.90;;;;;;4989102;28;20461;-58
2023/01/17 02:38:30;;;;;;;1.70;1.40;;;1.10;99.90;;;;;;4994464;28;20442;-59
2023/01/17 02:41:12;;;;;;;1.67;1.40;;;1.10;99.90;;;;;;4990380;28;21135;-59
2023/01/17 02:43:39;;;;;;;1.67;1.50;;;1.10;99.90;;;;;;4992773;28;20400;-57
2023/01/17 02:46:04;;;;;;;1.33;1.33;;;1.10;99.90;;;;;;4994664;28;20476;-58
2023/01/17 02:48:32;;;;;;;1.60;1.50;;;1.10;99.90;;;;;;4986213;28;20914;-58
2023/01/17 02:51:28;;;;;;;2.93;1.07;;;1.10;99.90;;;;;;4988398;28;20256;-57
2023/01/17 02:54:24;;;;;;;1.23;1.13;;;1.10;99.90;;;;;;4990958;28;20462;-58
2023/01/17 02:57:26;;;;;;;1.60;1.50;;;1.10;99.90;;;;;;5001231;28;20526;-58
2023/01/17 03:00:13;;;;;;;1.50;1.40;;;1.20;99.90;;;;;;4990125;28;20955;-58
2023/01/17 03:03:01;;;;;;;1.93;1.43;;;1.10;99.90;;;;;;4988884;28;20458;-58
2023/01/17 03:05:36;;;;;;;1.00;1.00;;;1.10;99.90;;;;;;4983516;28;20848;-58
2023/01/17 03:08:03;;;;;;;1.30;1.20;;;1.10;99.90;;;;;;4990578;28;20935;-58
2023/01/17 03:10:32;;;;;;;1.37;1.00;;;1.10;99.90;;;;;;4990715;28;20480;-57
2023/01/17 03:12:59;;;;;;;1.10;1.10;;;1.10;99.90;;;;;;4987205;28;20451;-58
2023/01/17 03:15:26;;;;;;;1.10;1.10;;;1.10;99.90;;;;;;4988520;28;20511;-58
2023/01/17 03:17:54;;;;;;;1.37;1.17;;;1.10;99.90;;;;;;4990838;28;20458;-58
2023/01/17 03:20:20;;;;;;;2.30;1.50;;;1.10;99.90;;;;;;4988112;28;20945;-58
2023/01/17 03:22:45;;;;;;;1.40;1.30;;;1.10;99.90;;;;;;4989687;28;20548;-59
2023/01/17 03:25:11;;;;;;;3.60;1.40;;;1.10;99.90;;;;;;4994947;28;20435;-59
2023/01/17 03:27:36;;;;;;;1.00;1.00;;;1.10;99.90;;;;;;4992175;28;20212;-60
2023/01/17 03:30:03;;;;;;;1.20;1.20;;;1.00;99.90;;;;;;4992876;28;20180;-59
2023/01/17 03:32:29;;;;;;;1.23;1.17;;;1.00;99.90;;;;;;4989767;28;20196;-59
2023/01/17 03:34:54;;;;;;;1.73;1.40;;;1.00;99.90;;;;;;4990961;28;20412;-59
2023/01/17 03:37:20;;;;;;;1.60;1.37;;;1.00;99.90;;;;;;4986507;28;20210;-59
2023/01/17 03:39:46;;;;;;;1.40;1.30;;;1.00;99.90;;;;;;4994314;28;20188;-59
2023/01/17 03:42:11;;;;;;;1.40;1.30;;;1.00;99.90;;;;;;4989802;28;20272;-58
2023/01/17 03:44:37;;;;;;;1.13;1.03;;;1.00;99.90;;;;;;4991703;28;20933;-59
2023/01/17 03:47:03;;;;;;;2.50;1.10;;;1.00;99.90;;;;;;4995393;28;20829;-58
2023/01/17 03:49:28;;;;;;;1.50;1.40;;;1.00;99.90;;;;;;4987171;28;20631;-59
2023/01/17 03:51:54;;;;;;;1.47;1.37;;;1.00;99.90;;;;;;4988072;28;20678;-59
2023/01/17 03:54:20;;;;;;;2.03;1.40;;;1.00;99.90;;;;;;4989260;28;20180;-59
2023/01/17 03:56:45;;;;;;;1.50;1.40;;;1.00;99.90;;;;;;4990939;28;20531;-58
2023/01/17 03:59:11;;;;;;;1.50;1.40;;;1.00;99.90;;;;;;4989150;28;20612;-59
2023/01/17 04:01:36;;;;;;;1.57;1.47;;;1.00;99.90;;;;;;4990969;28;20207;-59
2023/01/17 04:04:02;;;;;;;2.27;2.07;;;1.00;99.90;;;;;;4989191;28;20177;-59
2023/01/17 04:06:28;;;;;;;1.70;1.60;;;1.00;99.90;;;;;;4988585;28;20291;-59
2023/01/17 04:08:53;;;;;;;1.67;1.57;;;1.00;99.90;;;;;;4991911;28;20176;-59
2023/01/17 04:11:19;;;;;;;2.63;2.20;;;1.00;99.90;;;;;;5011647;28;20192;-59
2023/01/17 04:13:45;;;;;;;1.90;1.60;;;1.00;99.90;;;;;;4993586;28;20189;-58
2023/01/17 04:16:14;;;;;;;1.93;1.37;;;1.00;99.90;;;;;;4989308;28;21195;-59
2023/01/17 04:18:40;;;;;;;1.33;1.23;;;1.00;99.90;;;;;;4992611;28;20183;-59
2023/01/17 04:21:07;;;;;;;1.70;1.53;;;1.00;99.90;;;;;;4993615;28;21006;-60
2023/01/17 04:23:33;;;;;;;1.60;1.50;;;1.00;99.90;;;;;;4991372;28;20191;-59
2023/01/17 04:25:59;;;;;;;1.40;1.30;;;1.00;99.90;;;;;;4993431;28;20608;-58
2023/01/17 04:28:24;;;;;;;1.40;1.30;;;1.00;99.90;;;;;;4991896;28;20424;-59
2023/01/17 04:30:50;;;;;;;1.50;1.40;;;1.00;99.90;;;;;;4991591;28;20218;-60
2023/01/17 04:33:16;;;;;;;1.40;1.30;;;0.90;99.90;;;;;;5004467;28;20173;-59
2023/01/17 04:35:42;;;;;;;7.10;1.67;;;0.90;99.90;;;;;;4985946;28;20176;-59
2023/01/17 04:38:07;;;;;;;1.37;1.33;;;1.00;99.90;;;;;;4986991;28;21042;-58
2023/01/17 04:40:33;;;;;;;2.80;1.80;;;0.90;99.90;;;;;;4989800;28;20171;-59
2023/01/17 04:42:58;;;;;;;2.47;1.63;;;0.90;99.90;;;;;;4988601;28;20223;-59
2023/01/17 04:45:24;;;;;;;1.57;1.47;;;0.90;99.90;;;;;;4986794;28;20677;-59
2023/01/17 04:47:50;;;;;;;1.60;1.50;;;0.90;99.90;;;;;;4993798;28;20205;-59
2023/01/17 04:50:16;;;;;;;2.13;1.63;;;0.90;99.90;;;;;;4988264;28;20189;-59
2023/01/17 04:52:42;;;;;;;2.43;2.23;;;0.90;99.90;;;;;;4984500;28;20212;-59
2023/01/17 04:55:08;;;;;;;1.50;1.40;;;0.90;99.90;;;;;;4989176;28;20435;-58
2023/01/17 04:57:33;;;;;;;8.20;3.70;;;0.90;99.90;;;;;;4980969;28;20183;-59
2023/01/17 04:59:59;;;;;;;10.17;3.90;;;0.90;99.90;;;;;;4979978;28;20435;-57
2023/01/17 05:02:24;;;;;;;14.40;6.10;;;0.90;99.90;;;;;;4978130;28;20197;-55
2023/01/17 05:04:50;;;;;;;20.40;6.60;;;0.90;99.90;;;;;;4984046;28;20213;-57
2023/01/17 05:07:16;;;;;;;23.10;9.13;;;0.80;99.90;;;;;;4980532;28;20800;-57
2023/01/17 05:09:42;;;;;;;5.43;2.57;;;0.80;99.90;;;;;;4984206;28;20173;-56
2023/01/17 05:12:08;;;;;;;6.20;2.90;;;0.80;99.90;;;;;;4985819;28;20193;-59
2023/01/17 05:14:34;;;;;;;2.00;1.80;;;0.70;99.90;;;;;;4988144;28;20486;-60
2023/01/17 05:17:01;;;;;;;4.40;2.60;;;0.70;99.90;;;;;;4989434;28;20195;-62
2023/01/17 05:19:27;;;;;;;6.07;2.77;;;0.60;99.90;;;;;;4989197;28;20229;-60
2023/01/17 05:21:53;;;;;;;5.40;3.47;;;0.60;99.90;;;;;;4986490;28;20448;-60
2023/01/17 05:24:19;;;;;;;14.70;6.17;;;0.50;99.90;;;;;;4988182;28;20268;-60
2023/01/17 05:26:45;;;;;;;8.43;4.20;;;0.50;99.90;;;;;;4988094;28;20200;-60
2023/01/17 05:29:11;;;;;;;7.83;3.30;;;0.40;99.90;;;;;;4990852;28;20748;-60
2023/01/17 05:31:37;;;;;;;6.40;2.53;;;0.40;99.90;;;;;;4981356;28;20827;-59
2023/01/17 05:34:03;;;;;;;4.87;2.87;;;0.40;99.90;;;;;;4986260;28;20496;-58
2023/01/17 05:36:28;;;;;;;3.60;3.00;;;0.30;99.90;;;;;;4983113;28;20560;-59
2023/01/17 05:38:54;;;;;;;5.00;4.23;;;0.30;99.90;;;;;;4983428;28;20569;-59
2023/01/17 05:41:21;;;;;;;6.17;4.70;;;0.20;99.90;;;;;;4978916;28;20200;-56
2023/01/17 05:43:46;;;;;;;3.80;3.50;;;0.20;99.90;;;;;;4984611;28;20241;-59
2023/01/17 05:46:12;;;;;;;5.93;4.33;;;0.10;99.90;;;;;;4978248;28;20470;-59
2023/01/17 05:48:37;;;;;;;4.00;3.60;;;0.10;99.90;;;;;;4985542;28;20181;-58
2023/01/17 05:51:03;;;;;;;8.00;3.27;;;0.00;99.90;;;;;;4987937;28;20203;-58
2023/01/17 05:53:29;;;;;;;6.67;2.60;;;-0.10;99.90;;;;;;4990676;28;20191;-60
2023/01/17 05:55:54;;;;;;;4.40;2.60;;;-0.10;99.90;;;;;;4988140;28;20180;-59
2023/01/17 05:58:21;;;;;;;6.40;2.43;;;-0.10;99.90;;;;;;4978896;28;20260;-60
2023/01/17 06:00:47;;;;;;;4.00;2.17;;;-0.20;99.90;;;;;;4984621;28;20179;-59
2023/01/17 06:03:13;;;;;;;1.77;1.63;;;-0.20;99.90;;;;;;4996219;28;20434;-60
2023/01/17 06:05:40;;;;;;;4.07;2.10;;;-0.30;99.90;;;;;;4985347;28;20505;-59
2023/01/17 06:08:06;;;;;;;2.00;1.90;;;-0.30;99.90;;;;;;4985552;28;20861;-60
2023/01/17 06:10:32;;;;;;;7.77;4.27;;;-0.30;99.90;;;;;;4985398;28;20438;-59
2023/01/17 06:13:09;;;;;;;2.50;2.30;;;-0.40;99.90;;;;;;5000894;28;20196;-59
2023/01/17 06:15:36;;;;;;;9.83;5.47;;;-0.40;99.90;;;;;;4986051;28;20431;-59
2023/01/17 06:18:11;;;;;;;5.20;3.57;;;-0.50;99.90;;;;;;4991025;28;20978;-59
2023/01/17 06:20:37;;;;;;;2.27;2.07;;;-0.50;99.90;;;;;;4990686;28;20524;-59
2023/01/17 06:23:04;;;;;;;3.13;2.60;;;-0.50;99.90;;;;;;4982670;28;20493;-59
2023/01/17 06:25:36;;;;;;;4.37;3.90;;;-0.50;99.90;;;;;;4983448;28;20435;-60
2023/01/17 06:28:01;;;;;;;2.73;2.40;;;-0.50;99.90;;;;;;4991028;28;20439;-58
2023/01/17 06:30:27;;;;;;;4.50;2.50;;;-0.50;99.90;;;;;;4987043;28;20441;-59
2023/01/17 06:32:54;;;;;;;3.30;2.40;;;-0.50;99.90;;;;;;4988794;28;20234;-60
2023/01/17 06:35:20;;;;;;;4.63;3.17;;;-0.50;99.90;;;;;;4987540;28;20671;-60
2023/01/17 06:37:50;;;;;;;3.63;2.97;;;-0.50;99.90;;;;;;4988252;28;20451;-59
2023/01/17 06:40:16;;;;;;;23.33;12.50;;;-0.50;99.90;;;;;;4987062;28;20959;-59
2023/01/17 06:42:41;;;;;;;13.27;5.40;;;-0.50;99.90;;;;;;4982300;28;20474;-59
2023/01/17 06:45:07;;;;;;;4.40;3.40;;;-0.50;99.90;;;;;;4992099;28;20176;-59
2023/01/17 06:47:37;;;;;;;3.40;2.90;;;-0.50;99.90;;;;;;4991977;28;20211;-60
2023/01/17 06:50:03;;;;;;;6.57;3.93;;;-0.50;99.90;;;;;;4989200;28;20465;-60
2023/01/17 06:52:29;;;;;;;10.20;5.37;;;-0.50;99.90;;;;;;4997885;28;20454;-60
2023/01/17 06:54:55;;;;;;;8.50;5.67;;;-0.50;99.90;;;;;;4991383;28;20440;-59
2023/01/17 06:57:21;;;;;;;12.03;6.13;;;-0.50;99.90;;;;;;4989135;28;20286;-60
2023/01/17 06:59:46;;;;;;;10.67;4.30;;;-0.50;99.90;;;;;;4988356;28;20180;-60
2023/01/17 07:02:13;;;;;;;5.60;4.00;;;-0.50;99.90;;;;;;4991991;28;20529;-60
2023/01/17 07:04:38;;;;;;;8.83;4.20;;;-0.50;99.90;;;;;;4992538;28;20564;-60
2023/01/17 07:07:04;;;;;;;6.93;4.00;;;-0.60;99.90;;;;;;4989437;28;20985;-59
2023/01/17 07:09:30;;;;;;;8.87;4.90;;;-0.60;99.90;;;;;;4995853;28;20184;-60
2023/01/17 07:12:00;;;;;;;7.60;4.47;;;-0.60;99.90;;;;;;4994956;28;20206;-60
2023/01/17 07:14:27;;;;;;;7.07;4.53;;;-0.70;99.90;;;;;;4988357;28;20195;-59
2023/01/17 07:16:52;;;;;;;4.00;3.20;;;-0.70;99.90;;;;;;4989409;28;20534;-59
2023/01/17 07:19:18;;;;;;;12.90;4.20;;;-0.70;99.90;;;;;;4992394;28;20519;-60
2023/01/17 07:21:44;;;;;;;6.97;4.40;;;-0.70;99.90;;;;;;4994089;28;20466;-59
2023/01/17 07:24:09;;;;;;;6.60;3.90;;;-0.70;99.90;;;;;;4994233;28;20191;-60
2023/01/17 07:26:39;;;;;;;6.43;3.63;;;-0.70;99.90;;;;;;4992697;28;20277;-60
2023/01/17 07:29:05;;;;;;;4.83;3.60;;;-0.70;99.90;;;;;;4990406;28;20232;-59
2023/01/17 07:31:35;;;;;;;5.30;3.77;;;-0.70;99.90;;;;;;4990381;28;20446;-59
2023/01/17 07:34:01;;;;;;;5.73;3.60;;;-0.70;99.90;;;;;;4991288;28;20822;-60
2023/01/17 07:36:27;;;;;;;5.60;3.63;;;-0.60;99.90;;;;;;4989654;28;20441;-59
2023/01/17 07:38:53;;;;;;;4.37;3.47;;;-0.60;99.90;;;;;;4989072;28;20437;-59
2023/01/17 07:41:19;;;;;;;6.93;4.30;;;-0.50;99.90;;;;;;4991322;28;20204;-59
2023/01/17 07:43:44;;;;;;;7.07;4.10;;;-0.50;99.90;;;;;;4991755;28;20195;-60
2023/01/17 07:46:10;;;;;;;6.43;4.00;;;-0.50;99.90;;;;;;4989878;28;20222;-60
2023/01/17 07:48:36;;;;;;;5.53;3.97;;;-0.40;99.90;;;;;;4993071;28;20949;-61
2023/01/17 07:51:01;;;;;;;11.50;4.63;;;-0.40;99.90;;;;;;4993974;28;20209;-60
2023/01/17 07:53:29;;;;;;;6.27;4.67;;;-0.30;99.90;;;;;;4984717;28;20675;-60
2023/01/17 07:55:58;;;;;;;9.60;5.50;;;-0.20;99.90;;;;;;4998647;28;20184;-60
2023/01/17 07:58:24;;;;;;;9.60;5.83;;;-0.20;99.90;;;;;;4990160;28;20435;-60
2023/01/17 08:00:50;;;;;;;8.23;5.33;;;-0.20;99.90;;;;;;4987205;28;20593;-59
2023/01/17 08:03:16;;;;;;;6.60;4.23;;;-0.20;99.90;;;;;;4985550;28;20274;-60
2023/01/17 08:05:51;;;;;;;6.10;4.33;;;-0.10;99.90;;;;;;4983851;28;20213;-60
2023/01/17 08:08:16;;;;;;;7.10;4.30;;;-0.20;99.90;;;;;;4984392;28;20437;-59
2023/01/17 08:10:42;;;;;;;8.47;5.33;;;-0.20;99.90;;;;;;5002207;28;20936;-60
2023/01/17 08:13:07;;;;;;;14.53;6.50;;;-0.30;99.90;;;;;;4998525;28;20203;-59
2023/01/17 08:15:33;;;;;;;13.60;5.90;;;-0.30;99.90;;;;;;4989620;28;20180;-61
2023/01/17 08:17:59;;;;;;;9.40;5.40;;;-0.30;99.90;;;;;;4987671;28;20209;-61
2023/01/17 08:20:25;;;;;;;12.13;6.47;;;-0.30;99.90;;;;;;4990897;28;20226;-60
2023/01/17 08:22:53;;;;;;;12.73;7.00;;;-0.20;99.90;;;;;;4976762;28;20210;-55
2023/01/17 08:25:20;;;;;;;14.33;7.57;;;-0.30;99.90;;;;;;4981703;28;20453;-61
2023/01/17 08:27:45;;;;;;;15.90;8.80;;;-0.30;99.90;;;;;;4990256;28;20481;-61
2023/01/17 08:30:11;;;;;;;17.10;8.00;;;-0.30;99.90;;;;;;4998170;28;20519;-61
2023/01/17 08:32:39;;;;;;;17.03;6.97;;;-0.30;99.90;;;;;;4985560;28;20211;-61
2023/01/17 08:35:06;;;;;;;19.00;7.93;;;-0.30;99.90;;;;;;4990870;28;20183;-61
2023/01/17 08:37:31;;;;;;;16.87;8.70;;;-0.20;99.90;;;;;;4984766;28;20531;-61
2023/01/17 08:39:57;;;;;;;14.13;7.03;;;-0.20;99.90;;;;;;4984484;28;21006;-61
2023/01/17 08:42:23;;;;;;;10.27;6.23;;;-0.30;99.90;;;;;;4985490;28;20230;-61
2023/01/17 08:44:49;;;;;;;13.10;6.40;;;-0.20;99.90;;;;;;4988555;28;20266;-63
2023/01/17 08:47:14;;;;;;;10.23;5.67;;;-0.20;99.90;;;;;;4988826;28;20209;-63
2023/01/17 08:49:40;;;;;;;10.97;5.97;;;-0.10;99.90;;;;;;4989605;28;20513;-63
2023/01/17 08:52:06;;;;;;;20.67;9.60;;;-0.10;99.90;;;;;;4988807;28;20594;-63
2023/01/17 08:54:31;;;;;;;10.57;5.20;;;-0.10;99.90;;;;;;4986393;28;20826;-62
2023/01/17 08:56:57;;;;;;;8.70;5.40;;;-0.10;99.90;;;;;;4987845;28;20665;-62
2023/01/17 08:59:23;;;;;;;16.20;6.17;;;-0.10;99.90;;;;;;4985732;28;20187;-63
2023/01/17 09:01:51;;;;;;;6.30;4.43;;;0.00;99.90;;;;;;4991308;28;20231;-63
2023/01/17 09:04:16;;;;;;;13.57;5.70;;;0.00;99.90;;;;;;4978596;28;20674;-63
2023/01/17 09:06:47;;;;;;;8.47;4.20;;;0.00;99.90;;;;;;4982292;28;20456;-63
2023/01/17 09:09:15;;;;;;;7.23;4.37;;;0.00;99.90;;;;;;4988410;28;20581;-63
2023/01/17 09:11:41;;;;;;;7.50;3.80;;;0.00;99.90;;;;;;4985152;28;20505;-64
2023/01/17 09:14:06;;;;;;;6.93;4.03;;;0.00;99.90;;;;;;4990788;28;20528;-63
2023/01/17 09:16:32;;;;;;;6.53;4.10;;;0.10;99.90;;;;;;4989996;28;20671;-63
2023/01/17 09:18:58;;;;;;;8.20;4.90;;;0.10;99.90;;;;;;4988023;28;20191;-62
2023/01/17 09:21:25;;;;;;;7.73;4.47;;;0.10;99.90;;;;;;4984146;28;20758;-63
2023/01/17 09:23:51;;;;;;;8.63;4.60;;;0.10;99.90;;;;;;4992347;28;20565;-63
2023/01/17 09:26:20;;;;;;;9.50;5.07;;;0.10;99.90;;;;;;4991375;28;20457;-63
2023/01/17 09:28:46;;;;;;;20.13;6.23;;;0.20;99.90;;;;;;4988410;28;20935;-62
2023/01/17 09:31:12;;;;;;;10.63;5.60;;;0.20;99.90;;;;;;4982705;28;20454;-63
2023/01/17 09:33:40;;;;;;;8.80;4.50;;;0.20;99.90;;;;;;4987399;28;20168;-62
2023/01/17 09:36:06;;;;;;;8.30;4.80;;;0.10;99.90;;;;;;4984181;28;20267;-59
2023/01/17 09:38:32;;;;;;;13.23;6.40;;;0.20;99.90;;;;;;4981875;28;21034;-63
2023/01/17 09:40:59;;;;;;;9.57;5.90;;;0.20;99.90;;;;;;4987152;28;20191;-63
2023/01/17 09:43:29;;;;;;;15.20;6.63;;;0.20;99.90;;;;;;4989316;28;20789;-63
2023/01/17 09:45:54;;;;;;;13.80;5.80;;;0.20;99.90;;;;;;4988449;28;20454;-63
2023/01/17 09:48:36;;;;;;;9.60;5.03;;;0.30;99.90;;;;;;4990302;28;20439;-64
2023/01/17 09:51:18;;;;;;;7.90;4.90;;;0.30;99.90;;;;;;4984979;28;20214;-63
2023/01/17 09:53:44;;;;;;;9.30;5.40;;;0.40;99.90;;;;;;4989715;28;20439;-63
2023/01/17 09:56:20;;;;;;;15.00;6.60;;;0.40;99.90;;;;;;4992197;28;20424;-62
2023/01/17 09:58:51;;;;;;;11.43;5.67;;;0.40;99.90;;;;;;4990910;28;20185;-63
2023/01/17 10:01:39;;;;;;;8.73;5.50;;;0.50;99.90;;;;;;4991575;28;20454;-63
2023/01/17 10:04:22;;;;;;;6.50;4.50;;;0.50;99.90;;;;;;4995006;28;20440;-62
2023/01/17 10:07:24;;;;;;;8.37;4.83;;;0.50;99.90;;;;;;4995436;28;20505;-63
2023/01/17 10:10:26;;;;;;;13.93;4.63;;;0.60;99.90;;;;;;4971116;28;20676;-63
2023/01/17 10:13:19;;;;;;;7.60;4.10;;;0.60;99.90;;;;;;4987629;28;20432;-63
2023/01/17 10:16:20;;;;;;;8.67;5.10;;;0.70;99.90;;;;;;4990755;28;20432;-63
2023/01/17 10:19:15;;;;;;;8.70;4.70;;;0.70;99.90;;;;;;4989593;28;20939;-63
2023/01/17 10:22:06;;;;;;;7.80;4.13;;;0.70;99.90;;;;;;4988720;28;21099;-63
2023/01/17 10:25:07;;;;;;;7.23;4.60;;;0.70;99.90;;;;;;4993468;28;20423;-62
2023/01/17 10:27:53;;;;;;;4.30;3.63;;;0.80;99.90;;;;;;4985949;28;20465;-63
2023/01/17 10:30:44;;;;;;;7.47;4.77;;;0.80;99.90;;;;;;4992930;28;20922;-63
2023/01/17 10:33:30;;;;;;;7.97;4.87;;;0.80;99.90;;;;;;4989073;28;20542;-57
2023/01/17 10:36:06;;;;;;;8.17;4.27;;;0.80;99.90;;;;;;4980050;28;20518;-63
2023/01/17 10:38:34;;;;;;;7.33;4.20;;;0.90;99.90;;;;;;4985847;28;20494;-63
2023/01/17 10:41:03;;;;;;;11.83;5.40;;;0.90;99.90;;;;;;4989890;28;20431;-58
2023/01/17 10:43:48;;;;;;;6.60;3.80;;;0.90;99.90;;;;;;4994641;28;20458;-58
2023/01/17 10:46:20;;;;;;;6.20;3.80;;;0.90;99.90;;;;;;4984790;28;20459;-63
2023/01/17 10:48:49;;;;;;;7.70;4.30;;;0.90;99.90;;;;;;4989301;28;20422;-63
2023/01/17 10:51:29;;;;;;;7.43;4.50;;;0.90;99.90;;;;;;5003579;28;20494;-63
2023/01/17 10:54:16;;;;;;;8.67;3.97;;;0.90;99.90;;;;;;4993286;28;20460;-64
2023/01/17 10:56:42;;;;;;;4.80;4.30;;;1.00;99.90;;;;;;4984680;28;20856;-63
2023/01/17 10:59:30;;;;;;;8.30;4.67;;;1.00;99.90;;;;;;4982143;28;20424;-63
2023/01/17 11:01:56;;;;;;;9.50;4.80;;;1.00;99.90;;;;;;4975831;28;20312;-58
2023/01/17 11:04:39;;;;;;;5.40;3.70;;;1.00;99.90;;;;;;4981285;28;20442;-63
2023/01/17 11:07:25;;;;;;;4.60;4.00;;;1.10;99.90;;;;;;4984884;28;20478;-63
2023/01/17 11:09:55;;;;;;;6.67;4.17;;;1.10;99.90;;;;;;4987799;28;20578;-62
2023/01/17 11:12:43;;;;;;;10.13;4.77;;;1.10;99.90;;;;;;4982644;28;20496;-63
2023/01/17 11:15:09;;;;;;;4.60;3.90;;;1.10;99.90;;;;;;4992538;28;20894;-63
2023/01/17 11:17:37;;;;;;;7.87;4.40;;;1.20;99.90;;;;;;4980013;28;20438;-63
2023/01/17 11:20:12;;;;;;;6.47;4.07;;;1.30;99.90;;;;;;4989430;28;20215;-62
2023/01/17 11:22:37;;;;;;;5.27;3.77;;;1.30;99.90;;;;;;4979438;28;20466;-63
2023/01/17 11:25:04;;;;;;;6.57;3.77;;;1.40;99.90;;;;;;4987102;28;20435;-63
2023/01/17 11:27:33;;;;;;;5.90;3.70;;;1.40;99.90;;;;;;4984881;28;20327;-63
2023/01/17 11:30:01;;;;;;;6.50;3.87;;;1.40;99.90;;;;;;4980182;28;20435;-61
2023/01/17 11:32:29;;;;;;;4.90;3.80;;;1.50;99.90;;;;;;4983766;28;20885;-63
2023/01/17 11:35:16;;;;;;;6.83;3.93;;;1.50;99.90;;;;;;4996938;28;20459;-64
2023/01/17 11:37:57;;;;;;;6.87;3.90;;;1.50;99.90;;;;;;4991183;28;20508;-63
2023/01/17 11:40:25;;;;;;;4.60;3.77;;;1.60;99.90;;;;;;4994455;28;20469;-63
2023/01/17 11:43:17;;;;;;;11.53;3.90;;;1.60;99.90;;;;;;4989120;28;20439;-64
2023/01/17 11:45:44;;;;;;;5.87;3.87;;;1.60;99.90;;;;;;4990121;28;20518;-63
2023/01/17 11:48:13;;;;;;;7.20;4.33;;;1.60;99.90;;;;;;4976870;28;20432;-64
2023/01/17 11:50:58;;;;;;;11.23;4.33;;;1.60;99.90;;;;;;4991894;28;20427;-63
2023/01/17 11:53:28;;;;;;;11.93;4.83;;;1.70;99.90;;;;;;5001608;28;20988;-64
2023/01/17 11:56:06;;;;;;;7.20;4.43;;;1.80;99.90;;;;;;4990106;28;20439;-64
2023/01/17 11:58:35;;;;;;;6.50;3.83;;;1.80;99.90;;;;;;4986181;28;20469;-64
2023/01/17 12:01:26;;;;;;;6.90;3.53;;;1.80;99.90;;;;;;4986323;28;20440;-64
2023/01/17 12:04:07;;;;;;;4.13;3.10;;;1.90;99.90;;;;;;4991505;28;20451;-64
2023/01/17 12:06:51;;;;;;;3.47;3.10;;;1.90;99.90;;;;;;4984687;28;20462;-64
2023/01/17 12:09:38;;;;;;;5.80;2.70;;;1.80;99.90;;;;;;4990579;28;20449;-63
2023/01/17 12:15:42;;;;;;;8.07;3.33;;;1.80;99.90;;;;;;4991176;28;20527;-62
2023/01/17 12:18:13;;;;;;;4.03;2.00;;;1.90;99.90;;;;;;4989728;28;20855;-63
2023/01/17 12:20:45;;;;;;;5.70;3.10;;;1.90;99.90;;;;;;4981950;28;21203;-63
2023/01/17 12:23:29;;;;;;;4.47;3.30;;;1.90;99.90;;;;;;4983311;28;21038;-63
2023/01/17 12:26:33;;;;;;;4.63;2.77;;;1.90;99.90;;;;;;4992094;28;20435;-63
2023/01/17 12:29:10;;;;;;;4.07;2.73;;;1.90;99.90;;;;;;4989813;28;20443;-63
2023/01/17 12:31:48;;;;;;;8.17;2.70;;;2.00;99.90;;;;;;4989212;28;20454;-63
2023/01/17 12:34:36;;;;;;;3.73;2.77;;;2.00;99.90;;;;;;4990287;28;20437;-64
2023/01/17 12:37:18;;;;;;;6.63;2.57;;;2.00;99.90;;;;;;4986617;28;22498;-63
2023/01/17 12:39:55;;;;;;;4.23;2.20;;;2.00;99.90;;;;;;4990424;28;20523;-63
2023/01/17 12:42:25;;;;;;;6.90;2.70;;;2.00;99.90;;;;;;4984055;28;20957;-63
2023/01/17 12:45:06;;;;;;;3.20;2.47;;;2.00;99.90;;;;;;4996525;28;20457;-63
2023/01/17 12:47:43;;;;;;;7.23;2.70;;;2.00;99.90;;;;;;4989730;28;20460;-64
2023/01/17 12:50:31;;;;;;;3.00;2.47;;;2.00;99.90;;;;;;4981776;28;20502;-63
2023/01/17 12:53:21;;;;;;;6.37;3.90;;;2.00;99.90;;;;;;4983762;28;20986;-64
2023/01/17 12:56:01;;;;;;;3.40;2.70;;;2.00;99.90;;;;;;4985505;28;20468;-64
2023/01/17 12:58:35;;;;;;;4.87;2.60;;;2.10;99.90;;;;;;4978649;28;20555;-63
2023/01/17 13:01:24;;;;;;;2.87;2.27;;;2.00;99.90;;;;;;4987020;28;20932;-63
2023/01/17 13:04:14;;;;;;;3.73;2.90;;;2.10;99.90;;;;;;4984950;28;21357;-63
2023/01/17 13:06:49;;;;;;;3.93;2.20;;;2.10;99.90;;;;;;4988499;28;20460;-64
2023/01/17 13:09:20;;;;;;;3.40;2.17;;;2.10;99.90;;;;;;4985955;28;22513;-63
2023/01/17 13:11:54;;;;;;;2.47;2.20;;;2.00;99.90;;;;;;4986536;28;20608;-63
2023/01/17 13:14:20;;;;;;;3.00;2.37;;;2.00;99.90;;;;;;4991270;28;20462;-63
2023/01/17 13:16:46;;;;;;;2.60;2.07;;;2.00;99.90;;;;;;4976811;28;20731;-63
2023/01/17 13:19:36;;;;;;;2.47;2.00;;;1.90;99.90;;;;;;4986719;28;20608;-63
2023/01/17 13:22:06;;;;;;;4.20;2.40;;;1.90;99.90;;;;;;4987495;28;20208;-63
2023/01/17 13:24:56;;;;;;;4.63;2.90;;;1.90;99.90;;;;;;4984769;28;20431;-63
2023/01/17 13:27:59;;;;;;;9.07;2.97;;;1.90;99.90;;;;;;4984046;28;20492;-62
2023/01/17 13:30:31;;;;;;;2.73;2.13;;;1.90;99.90;;;;;;4987334;28;20427;-60
2023/01/17 13:33:11;;;;;;;3.67;2.73;;;1.80;99.90;;;;;;4984761;28;20501;-59
2023/01/17 13:35:58;;;;;;;2.60;2.40;;;1.80;99.90;;;;;;4985409;28;20454;-61
2023/01/17 13:38:53;;;;;;;4.47;2.30;;;1.80;99.90;;;;;;4986881;28;20438;-62
2023/01/17 13:41:44;;;;;;;5.00;2.67;;;1.80;99.90;;;;;;4987482;28;21014;-63
2023/01/17 13:44:26;;;;;;;4.50;2.40;;;1.70;99.90;;;;;;4993568;28;20525;-62
2023/01/17 13:46:57;;;;;;;3.10;2.20;;;1.70;99.90;;;;;;4995176;28;20506;-62
2023/01/17 13:49:30;;;;;;;5.63;2.40;;;1.70;99.90;;;;;;4983440;28;20531;-62
2023/01/17 13:52:01;;;;;;;4.70;2.83;;;1.70;99.90;;;;;;4992677;28;20533;-62
2023/01/17 13:54:31;;;;;;;5.70;2.60;;;1.70;99.90;;;;;;4981897;28;20431;-63
2023/01/17 13:57:23;;;;;;;3.37;2.33;;;1.70;99.90;;;;;;4997452;28;20443;-62
2023/01/17 13:59:49;;;;;;;3.00;2.70;;;1.60;99.90;;;;;;4989736;28;20444;-63
2023/01/17 14:02:47;;;;;;;3.27;2.37;;;1.60;99.90;;;;;;4997549;28;20488;-63
2023/01/17 14:05:38;;;;;;;3.43;2.60;;;1.60;99.90;;;;;;5003096;28;20200;-62
2023/01/17 14:08:11;;;;;;;3.60;2.17;;;1.50;99.90;;;;;;4987199;28;20490;-62
2023/01/17 14:10:40;;;;;;;2.53;2.33;;;1.50;99.90;;;;;;4980364;28;20464;-57
2023/01/17 14:13:30;;;;;;;2.43;2.23;;;1.50;99.90;;;;;;4983273;28;20461;-61
2023/01/17 14:15:56;;;;;;;2.37;2.17;;;1.50;99.90;;;;;;4982142;28;20448;-63
2023/01/17 14:18:37;;;;;;;2.60;2.40;;;1.40;99.90;;;;;;4982090;28;20432;-62
2023/01/17 14:21:17;;;;;;;4.10;2.57;;;1.40;99.90;;;;;;4989802;28;20431;-62
2023/01/17 14:23:58;;;;;;;2.40;2.20;;;1.40;99.90;;;;;;4992410;28;20901;-58
2023/01/17 14:26:39;;;;;;;2.90;2.27;;;1.40;99.90;;;;;;4990282;28;20466;-62
2023/01/17 14:29:43;;;;;;;2.73;2.37;;;1.30;99.90;;;;;;4983995;28;22467;-62
2023/01/17 14:32:12;;;;;;;2.50;2.20;;;1.30;99.90;;;;;;4988989;28;20435;-63
2023/01/17 14:34:38;;;;;;;2.10;2.00;;;1.30;99.90;;;;;;4993088;28;20425;-62
2023/01/17 14:37:32;;;;;;;4.80;2.57;;;1.30;99.90;;;;;;4990687;28;20513;-62
2023/01/17 14:39:59;;;;;;;3.37;2.67;;;1.30;99.90;;;;;;4987400;28;20903;-63
2023/01/17 14:42:30;;;;;;;3.20;2.10;;;1.30;99.90;;;;;;4997124;28;20447;-63